createdAt,value
2022-09-11T00:01:15.139Z,16.08
2022-09-11T00:03:43.397Z,16.03
2022-09-11T00:06:12.805Z,16.09
2022-09-11T00:08:41.176Z,16.11
2022-09-11T00:11:11.481Z,16.11
2022-09-11T00:13:39.760Z,16.10
2022-09-11T00:16:17.684Z,16.12
2022-09-11T00:18:46.716Z,16.09
2022-09-11T00:21:13.992Z,16.01
2022-09-11T00:23:41.190Z,15.90
2022-09-11T00:26:09.519Z,15.91
2022-09-11T00:28:39.632Z,15.92
2022-09-11T00:31:09.259Z,15.93
2022-09-11T00:33:37.323Z,15.97
2022-09-11T00:36:07.732Z,15.87
2022-09-11T00:38:37.293Z,15.78
2022-09-11T00:41:08.229Z,15.75
2022-09-11T00:43:59.729Z,15.67
2022-09-11T00:46:41.129Z,15.62
2022-09-11T00:49:47.889Z,15.61
2022-09-11T00:52:17.642Z,15.62
2022-09-11T00:54:49.578Z,15.56
2022-09-11T00:57:18.929Z,15.48
2022-09-11T00:59:47.582Z,15.43
2022-09-11T01:02:17.638Z,15.50
2022-09-11T01:04:44.787Z,15.56
2022-09-11T01:07:12.733Z,15.57
2022-09-11T01:09:40.261Z,15.57
2022-09-11T01:12:09.890Z,15.61
2022-09-11T01:14:53.061Z,15.48
2022-09-11T01:17:45.041Z,15.47
2022-09-11T01:20:30.485Z,15.49
2022-09-11T01:23:21.864Z,15.49
2022-09-11T01:26:26.380Z,15.48
2022-09-11T01:29:03.507Z,15.53
2022-09-11T01:31:46.743Z,15.52
2022-09-11T01:34:24.040Z,15.47
2022-09-11T01:36:54.405Z,15.38
2022-09-11T01:39:23.038Z,15.43
2022-09-11T01:42:00.190Z,15.47
2022-09-11T01:44:36.056Z,15.47
2022-09-11T01:47:04.786Z,15.39
2022-09-11T01:49:38.728Z,15.35
2022-09-11T01:52:09.573Z,15.26
2022-09-11T01:54:42.721Z,15.22
2022-09-11T01:57:16.998Z,15.19
2022-09-11T01:59:48.292Z,15.32
2022-09-11T02:02:19.728Z,15.27
2022-09-11T02:04:50.927Z,15.15
2022-09-11T02:07:25.197Z,15.12
2022-09-11T02:09:59.328Z,15.21
2022-09-11T02:12:31.270Z,15.17
2022-09-11T02:14:59.252Z,15.11
2022-09-11T02:17:55.115Z,15.11
2022-09-11T02:20:22.269Z,15.10
2022-09-11T02:22:49.500Z,14.99
2022-09-11T02:25:16.619Z,14.89
2022-09-11T02:27:43.697Z,14.93
2022-09-11T02:30:11.316Z,14.92
2022-09-11T02:32:41.225Z,14.97
2022-09-11T02:35:08.811Z,15.05
2022-09-11T02:38:00.032Z,15.06
2022-09-11T02:41:04.085Z,15.00
2022-09-11T02:43:49.766Z,14.94
2022-09-11T02:46:44.056Z,14.86
2022-09-11T02:49:30.886Z,14.83
2022-09-11T02:52:03.276Z,14.77
2022-09-11T02:54:45.973Z,14.87
2022-09-11T02:57:19.314Z,14.94
2022-09-11T03:00:02.127Z,14.93
2022-09-11T03:02:30.563Z,14.94
2022-09-11T03:04:58.101Z,15.01
2022-09-11T03:07:25.614Z,14.98
2022-09-11T03:09:53.048Z,14.86
2022-09-11T03:12:20.274Z,14.88
2022-09-11T03:14:48.600Z,14.85
2022-09-11T03:17:16.899Z,14.86
2022-09-11T03:19:44.052Z,14.89
2022-09-11T03:22:11.259Z,14.95
2022-09-11T03:24:39.672Z,14.79
2022-09-11T03:27:06.954Z,14.77
2022-09-11T03:29:34.038Z,14.76
2022-09-11T03:32:01.152Z,14.68
2022-09-11T03:34:28.455Z,14.63
2022-09-11T03:36:55.506Z,14.62
2022-09-11T03:39:22.884Z,14.64
2022-09-11T03:41:51.375Z,14.56
2022-09-11T03:44:18.484Z,14.64
2022-09-11T03:46:45.651Z,14.67
2022-09-11T03:49:12.761Z,14.74
2022-09-11T03:51:39.934Z,14.77
2022-09-11T03:54:07.741Z,14.75
2022-09-11T03:56:34.813Z,14.71
2022-09-11T03:59:02.233Z,14.58
2022-09-11T04:01:29.499Z,14.58
2022-09-11T04:03:57.145Z,14.48
2022-09-11T04:06:24.223Z,14.37
2022-09-11T04:08:51.337Z,14.26
2022-09-11T04:11:18.419Z,14.30
2022-09-11T04:13:45.758Z,14.40
2022-09-11T04:16:15.109Z,14.36
2022-09-11T04:18:43.634Z,14.29
2022-09-11T04:21:12.590Z,14.29
2022-09-11T04:23:39.989Z,14.20
2022-09-11T04:26:16.032Z,14.12
2022-09-11T04:28:43.592Z,14.05
2022-09-11T04:31:11.581Z,14.13
2022-09-11T04:33:39.657Z,14.09
2022-09-11T04:36:08.352Z,14.07
2022-09-11T04:38:36.528Z,14.07
2022-09-11T04:41:06.292Z,14.04
2022-09-11T04:43:34.999Z,13.98
2022-09-11T04:46:12.103Z,14.09
2022-09-11T04:48:46.211Z,14.14
2022-09-11T04:51:21.696Z,14.25
2022-09-11T04:53:49.256Z,14.30
2022-09-11T04:56:16.656Z,14.28
2022-09-11T04:58:43.723Z,14.25
2022-09-11T05:01:13.691Z,14.32
2022-09-11T05:03:42.366Z,14.33
2022-09-11T05:06:11.677Z,14.26
2022-09-11T05:08:38.778Z,14.31
2022-09-11T05:11:06.238Z,14.31
2022-09-11T05:13:36.392Z,14.22
2022-09-11T05:16:04.718Z,14.18
2022-09-11T05:18:32.319Z,14.24
2022-09-11T05:21:07.006Z,14.34
2022-09-11T05:23:34.718Z,14.43
2022-09-11T05:26:03.611Z,14.48
2022-09-11T05:28:31.042Z,14.49
2022-09-11T05:30:58.738Z,14.49
2022-09-11T05:33:27.591Z,14.45
2022-09-11T05:35:55.408Z,14.47
2022-09-11T05:38:22.851Z,14.43
2022-09-11T05:40:51.639Z,14.42
2022-09-11T05:43:19.742Z,14.43
2022-09-11T05:45:54.724Z,14.51
2022-09-11T05:48:21.825Z,14.54
2022-09-11T05:50:57.001Z,14.58
2022-09-11T05:53:24.147Z,14.65
2022-09-11T05:55:51.725Z,14.69
2022-09-11T05:58:18.859Z,14.67
2022-09-11T06:00:46.850Z,14.67
2022-09-11T06:03:18.725Z,14.66
2022-09-11T06:05:45.883Z,14.71
2022-09-11T06:08:13.315Z,14.79
2022-09-11T06:10:46.733Z,14.86
2022-09-11T06:13:17.825Z,14.82
2022-09-11T06:15:47.093Z,14.82
2022-09-11T06:18:17.561Z,14.88
2022-09-11T06:21:00.979Z,14.97
2022-09-11T06:23:28.251Z,15.03
2022-09-11T06:26:03.253Z,15.04
2022-09-11T06:28:30.437Z,15.02
2022-09-11T06:30:58.173Z,15.06
2022-09-11T06:33:25.306Z,15.05
2022-09-11T06:35:59.388Z,15.06
2022-09-11T06:38:27.147Z,15.07
2022-09-11T06:40:54.501Z,15.12
2022-09-11T06:43:21.570Z,15.18
2022-09-11T06:45:48.706Z,15.30
2022-09-11T06:48:17.065Z,15.34
2022-09-11T06:50:44.228Z,15.39
2022-09-11T06:53:12.220Z,15.39
2022-09-11T06:55:40.378Z,15.44
2022-09-11T06:58:07.804Z,15.45
2022-09-11T07:00:34.899Z,15.50
2022-09-11T07:03:02.333Z,15.51
2022-09-11T07:05:29.840Z,15.56
2022-09-11T07:07:57.228Z,15.57
2022-09-11T07:10:24.667Z,15.61
2022-09-11T07:12:55.689Z,15.62
2022-09-11T07:15:22.789Z,15.68
2022-09-11T07:17:49.906Z,15.70
2022-09-11T07:20:17.648Z,15.67
2022-09-11T07:22:45.862Z,15.73
2022-09-11T07:25:13.595Z,15.76
2022-09-11T07:27:41.385Z,15.81
2022-09-11T07:30:08.863Z,15.82
2022-09-11T07:32:37.143Z,15.83
2022-09-11T07:35:04.887Z,15.87
2022-09-11T07:37:32.000Z,15.91
2022-09-11T07:39:59.843Z,16.00
2022-09-11T07:42:28.837Z,16.16
2022-09-11T07:44:56.179Z,16.27
2022-09-11T07:47:23.271Z,16.36
2022-09-11T07:49:51.004Z,16.36
2022-09-11T07:52:20.490Z,16.45
2022-09-11T07:54:47.622Z,16.47
2022-09-11T07:57:14.769Z,16.46
2022-09-11T07:59:41.977Z,16.48
2022-09-11T08:02:11.684Z,16.52
2022-09-11T08:04:38.931Z,16.61
2022-09-11T08:07:06.700Z,16.71
2022-09-11T08:09:33.777Z,16.85
2022-09-11T08:12:01.997Z,16.92
2022-09-11T08:14:29.139Z,17.04
2022-09-11T08:16:56.898Z,17.01
2022-09-11T08:19:24.559Z,17.10
2022-09-11T08:21:51.648Z,17.13
2022-09-11T08:24:22.591Z,17.08
2022-09-11T08:26:50.604Z,17.10
2022-09-11T08:29:18.224Z,17.11
2022-09-11T08:31:45.335Z,17.19
2022-09-11T08:34:12.427Z,17.21
2022-09-11T08:36:39.659Z,17.17
2022-09-11T08:39:06.818Z,17.13
2022-09-11T08:41:41.120Z,17.14
2022-09-11T08:44:42.131Z,17.24
2022-09-11T08:47:15.265Z,17.28
2022-09-11T08:49:44.294Z,17.25
2022-09-11T08:52:14.374Z,17.28
2022-09-11T08:54:42.800Z,17.28
2022-09-11T08:57:18.420Z,17.28
2022-09-11T08:59:54.369Z,17.30
2022-09-11T09:02:50.480Z,17.38
2022-09-11T09:05:27.151Z,17.40
2022-09-11T09:08:27.978Z,17.42
2022-09-11T09:11:06.872Z,17.53
2022-09-11T09:13:36.648Z,17.52
2022-09-11T09:16:14.840Z,17.52
2022-09-11T09:18:45.120Z,17.55
2022-09-11T09:21:21.154Z,17.65
2022-09-11T09:23:55.410Z,17.77
2022-09-11T09:26:30.068Z,17.84
2022-09-11T09:28:59.548Z,17.99
2022-09-11T09:31:30.664Z,18.04
2022-09-11T09:34:15.339Z,18.13
2022-09-11T09:37:04.314Z,18.18
2022-09-11T09:39:31.891Z,18.17
2022-09-11T09:42:26.177Z,18.12
2022-09-11T09:45:27.468Z,18.06
2022-09-11T09:47:54.572Z,18.08
2022-09-11T09:50:28.467Z,18.04
2022-09-11T09:53:04.148Z,18.08
2022-09-11T09:55:31.325Z,18.09
2022-09-11T09:57:58.456Z,18.06
2022-09-11T10:00:25.778Z,18.17
2022-09-11T10:02:56.381Z,18.31
2022-09-11T10:05:35.102Z,18.43
2022-09-11T10:08:04.635Z,18.48
2022-09-11T10:10:40.352Z,18.44
2022-09-11T10:13:22.232Z,18.36
2022-09-11T10:15:50.055Z,18.33
2022-09-11T10:18:33.773Z,18.41
2022-09-11T10:21:12.891Z,18.46
2022-09-11T10:23:46.610Z,18.52
2022-09-11T10:26:19.537Z,18.54
2022-09-11T10:28:46.994Z,18.62
2022-09-11T10:31:16.446Z,18.77
2022-09-11T10:33:51.144Z,18.99
2022-09-11T10:36:23.125Z,19.14
2022-09-11T10:38:51.484Z,19.26
2022-09-11T10:41:34.141Z,19.37
2022-09-11T10:44:11.358Z,19.35
2022-09-11T10:46:39.977Z,19.26
2022-09-11T10:49:19.322Z,19.30
2022-09-11T10:51:59.903Z,19.34
2022-09-11T10:54:54.097Z,19.38
2022-09-11T10:57:21.104Z,19.27
2022-09-11T11:00:16.363Z,19.29
2022-09-11T11:02:45.928Z,19.31
2022-09-11T11:05:24.544Z,19.27
2022-09-11T11:08:22.637Z,19.21
2022-09-11T11:11:14.651Z,19.19
2022-09-11T11:13:49.336Z,19.21
2022-09-11T11:16:51.278Z,19.14
2022-09-11T11:19:38.010Z,19.09
2022-09-11T11:22:34.446Z,19.04
2022-09-11T11:25:37.183Z,19.08
2022-09-11T11:28:35.527Z,19.27
2022-09-11T11:31:11.355Z,19.62
2022-09-11T11:33:56.999Z,19.96
2022-09-11T11:36:38.341Z,20.23
2022-09-11T11:39:25.990Z,20.37
2022-09-11T11:42:17.232Z,20.56
2022-09-11T11:44:49.515Z,20.64
2022-09-11T11:47:18.488Z,20.64
2022-09-11T11:50:06.367Z,20.44
2022-09-11T11:52:36.460Z,20.30
2022-09-11T11:55:16.809Z,20.42
2022-09-11T11:58:06.146Z,20.50
2022-09-11T12:00:39.274Z,20.83
2022-09-11T12:03:15.662Z,20.70
2022-09-11T12:05:42.834Z,20.55
2022-09-11T12:08:13.922Z,20.73
2022-09-11T12:10:51.699Z,20.97
2022-09-11T12:13:20.598Z,21.10
2022-09-11T12:16:11.448Z,20.91
2022-09-11T12:18:39.105Z,20.76
2022-09-11T12:21:35.802Z,20.81
2022-09-11T12:24:02.879Z,20.80
2022-09-11T12:26:33.449Z,20.72
2022-09-11T12:29:13.000Z,20.49
2022-09-11T12:31:51.922Z,20.28
2022-09-11T12:34:27.050Z,20.08
2022-09-11T12:37:00.565Z,20.01
2022-09-11T12:39:38.626Z,19.89
2022-09-11T12:42:23.962Z,19.80
2022-09-11T12:44:50.954Z,19.66
2022-09-11T12:47:40.811Z,19.53
2022-09-11T12:50:11.079Z,19.44
2022-09-11T12:52:50.840Z,19.32
2022-09-11T12:55:39.699Z,19.46
2022-09-11T12:58:21.581Z,19.38
2022-09-11T13:01:03.663Z,19.25
2022-09-11T13:03:31.251Z,19.18
2022-09-11T13:06:03.120Z,19.33
2022-09-11T13:08:36.481Z,19.40
2022-09-11T13:11:36.060Z,19.25
2022-09-11T13:14:05.195Z,19.14
2022-09-11T13:16:37.003Z,19.20
2022-09-11T13:19:10.203Z,19.30
2022-09-11T13:21:40.624Z,19.27
2022-09-11T13:24:30.457Z,19.21
2022-09-11T13:27:05.880Z,19.31
2022-09-11T13:29:35.224Z,19.46
2022-09-11T13:32:12.623Z,19.36
2022-09-11T13:34:43.204Z,19.28
2022-09-11T13:37:31.198Z,19.28
2022-09-11T13:39:58.901Z,19.29
2022-09-11T13:42:26.116Z,19.37
2022-09-11T13:44:56.204Z,19.37
2022-09-11T13:47:28.157Z,19.42
2022-09-11T13:50:03.341Z,19.49
2022-09-11T13:52:33.062Z,19.59
2022-09-11T13:55:04.737Z,19.63
2022-09-11T13:57:32.009Z,19.78
2022-09-11T14:00:00.312Z,20.14
2022-09-11T14:02:40.669Z,20.85
2022-09-11T14:05:13.731Z,21.55
2022-09-11T14:08:00.214Z,21.92
2022-09-11T14:10:30.898Z,22.28
2022-09-11T14:13:23.747Z,22.71
2022-09-11T14:15:57.584Z,23.10
2022-09-11T14:18:28.895Z,23.12
2022-09-11T14:20:57.383Z,23.44
2022-09-11T14:23:27.383Z,23.80
2022-09-11T14:26:09.757Z,24.19
2022-09-11T14:28:43.046Z,24.54
2022-09-11T14:31:12.321Z,24.69
2022-09-11T14:33:39.579Z,25.07
2022-09-11T14:36:19.121Z,25.39
2022-09-11T14:38:47.531Z,25.38
2022-09-11T14:41:14.660Z,25.34
2022-09-11T14:43:41.789Z,25.48
2022-09-11T14:46:09.116Z,25.55
2022-09-11T14:48:36.376Z,25.95
2022-09-11T14:51:09.936Z,25.87
2022-09-11T14:53:42.800Z,25.84
2022-09-11T14:56:10.340Z,25.12
2022-09-11T14:58:37.913Z,24.48
2022-09-11T15:01:04.989Z,23.95
2022-09-11T15:03:32.189Z,23.57
2022-09-11T15:05:59.250Z,23.35
2022-09-11T15:08:26.395Z,23.31
2022-09-11T15:10:53.671Z,23.05
2022-09-11T15:13:21.459Z,22.78
2022-09-11T15:15:48.602Z,22.30
2022-09-11T15:18:17.488Z,22.06
2022-09-11T15:20:45.495Z,21.87
2022-09-11T15:23:12.542Z,21.91
2022-09-11T15:25:40.949Z,22.04
2022-09-11T15:28:10.148Z,21.92
2022-09-11T15:30:37.814Z,21.88
2022-09-11T15:33:05.213Z,21.93
2022-09-11T15:35:33.186Z,21.70
2022-09-11T15:38:00.396Z,21.51
2022-09-11T15:40:27.512Z,21.45
2022-09-11T15:42:56.679Z,21.49
2022-09-11T15:45:24.648Z,21.24
2022-09-11T15:47:51.827Z,20.67
2022-09-11T15:50:24.631Z,20.41
2022-09-11T15:52:51.777Z,20.54
2022-09-11T15:55:18.878Z,20.37
2022-09-11T15:57:46.251Z,20.27
2022-09-11T16:00:15.264Z,20.00
2022-09-11T16:02:42.472Z,20.08
2022-09-11T16:05:10.241Z,19.96
2022-09-11T16:07:37.328Z,19.81
2022-09-11T16:10:04.743Z,19.86
2022-09-11T16:12:32.165Z,19.90
2022-09-11T16:14:59.226Z,19.82
2022-09-11T16:17:31.032Z,19.90
2022-09-11T16:19:58.403Z,19.99
2022-09-11T16:22:26.772Z,19.97
2022-09-11T16:24:54.179Z,19.97
2022-09-11T16:27:21.269Z,20.00
2022-09-11T16:32:39.190Z,19.87
2022-09-11T16:35:08.302Z,19.79
2022-09-11T16:37:35.530Z,19.79
2022-09-11T16:40:04.222Z,19.71
2022-09-11T16:42:31.806Z,19.67
2022-09-11T16:44:58.893Z,19.64
2022-09-11T16:47:26.021Z,19.66
2022-09-11T16:50:08.951Z,19.68
2022-09-11T16:52:37.092Z,19.68
2022-09-11T16:55:06.282Z,19.68
2022-09-11T16:57:33.806Z,19.68
2022-09-11T17:00:00.862Z,19.68
2022-09-11T17:02:27.944Z,19.67
2022-09-11T17:04:55.068Z,19.58
2022-09-11T17:07:23.748Z,19.51
2022-09-11T17:09:50.811Z,19.38
2022-09-11T17:12:18.200Z,19.33
2022-09-11T17:14:45.294Z,19.29
2022-09-11T17:17:12.392Z,19.29
2022-09-11T17:19:39.538Z,19.25
2022-09-11T17:22:08.299Z,19.16
2022-09-11T17:24:35.398Z,19.19
2022-09-11T17:27:02.704Z,19.09
2022-09-11T17:29:29.848Z,18.93
2022-09-11T17:32:16.635Z,18.80
2022-09-11T17:34:43.992Z,18.71
2022-09-11T17:37:11.044Z,18.71
2022-09-11T17:39:38.421Z,18.70
2022-09-11T17:42:11.071Z,18.78
2022-09-11T17:44:41.248Z,18.68
2022-09-11T17:47:08.558Z,18.59
2022-09-11T17:49:35.644Z,18.56
2022-09-11T17:52:02.976Z,18.43
2022-09-11T17:54:30.114Z,18.31
2022-09-11T17:56:58.267Z,18.36
2022-09-11T17:59:25.403Z,18.32
2022-09-11T18:01:52.622Z,18.28
2022-09-11T18:04:20.156Z,18.31
2022-09-11T18:06:47.243Z,18.29
2022-09-11T18:09:19.588Z,18.28
2022-09-11T18:11:48.597Z,18.22
2022-09-11T18:14:16.719Z,18.18
2022-09-11T18:16:45.195Z,18.14
2022-09-11T18:19:12.890Z,18.10
2022-09-11T18:21:40.277Z,18.02
2022-09-11T18:24:09.780Z,17.92
2022-09-11T18:26:42.083Z,17.89
2022-09-11T18:29:12.407Z,17.87
2022-09-11T18:31:45.231Z,17.93
2022-09-11T18:34:15.710Z,17.87
2022-09-11T18:36:43.123Z,17.74
2022-09-11T18:39:10.854Z,17.66
2022-09-11T18:41:38.417Z,17.66
2022-09-11T18:44:10.370Z,17.59
2022-09-11T18:46:37.646Z,17.48
2022-09-11T18:49:05.005Z,17.39
2022-09-11T18:51:32.562Z,17.33
2022-09-11T18:54:00.222Z,17.30
2022-09-11T18:56:28.455Z,17.25
2022-09-11T18:58:56.017Z,17.15
2022-09-11T19:01:25.541Z,17.14
2022-09-11T19:03:53.307Z,17.12
2022-09-11T19:06:25.624Z,17.15
2022-09-11T19:08:54.845Z,17.16
2022-09-11T19:11:27.036Z,17.13
2022-09-11T19:13:56.778Z,17.09
2022-09-11T19:16:24.062Z,17.12
2022-09-11T19:18:51.191Z,17.08
2022-09-11T19:21:20.886Z,16.98
2022-09-11T19:23:55.629Z,17.00
2022-09-11T19:26:25.014Z,17.03
2022-09-11T19:28:52.539Z,16.98
2022-09-11T19:31:21.398Z,17.00
2022-09-11T19:33:48.620Z,17.00
2022-09-11T19:36:17.869Z,16.99
2022-09-11T19:38:46.812Z,17.03
2022-09-11T19:41:16.634Z,16.97
2022-09-11T19:43:44.929Z,16.90
2022-09-11T19:46:17.809Z,16.85
2022-09-11T19:48:45.626Z,16.85
2022-09-11T19:51:17.951Z,16.87
2022-09-11T19:53:45.155Z,16.82
2022-09-11T19:56:12.372Z,16.82
2022-09-11T19:58:40.008Z,16.71
2022-09-11T20:01:12.900Z,16.68
2022-09-11T20:03:41.715Z,16.62
2022-09-11T20:06:14.536Z,16.66
2022-09-11T20:08:43.425Z,16.63
2022-09-11T20:11:13.895Z,16.53
2022-09-11T20:13:41.099Z,16.54
2022-09-11T20:16:11.000Z,16.56
2022-09-11T20:18:38.243Z,16.52
2022-09-11T20:21:15.856Z,16.52
2022-09-11T20:23:43.875Z,16.46
2022-09-11T20:26:19.405Z,16.50
2022-09-11T20:28:47.362Z,16.49
2022-09-11T20:31:19.668Z,16.48
2022-09-11T20:33:47.585Z,16.42
2022-09-11T20:36:15.713Z,16.36
2022-09-11T20:38:42.925Z,16.30
2022-09-11T20:41:12.152Z,16.26
2022-09-11T20:43:39.982Z,16.25
2022-09-11T20:46:07.898Z,16.30
2022-09-11T20:48:35.258Z,16.34
2022-09-11T20:51:04.275Z,16.31
2022-09-11T20:53:31.412Z,16.32
2022-09-11T20:56:02.557Z,16.29
2022-09-11T20:58:30.153Z,16.26
2022-09-11T21:00:58.146Z,16.24
2022-09-11T21:03:25.838Z,16.19
2022-09-11T21:05:57.022Z,16.16
2022-09-11T21:08:30.170Z,16.16
2022-09-11T21:11:01.995Z,16.12
2022-09-11T21:13:29.159Z,16.10
2022-09-11T21:15:56.348Z,16.09
2022-09-11T21:18:23.583Z,16.08
2022-09-11T21:20:56.784Z,16.03
2022-09-11T21:23:24.379Z,16.04
2022-09-11T21:25:52.753Z,16.05
2022-09-11T21:28:20.044Z,16.02
2022-09-11T21:30:47.149Z,16.05
2022-09-11T21:33:14.211Z,16.02
2022-09-11T21:35:41.312Z,15.95
2022-09-11T21:38:08.723Z,15.90
2022-09-11T21:40:35.909Z,15.90
2022-09-11T21:43:03.027Z,15.93
2022-09-11T21:45:30.107Z,15.97
2022-09-11T21:47:57.436Z,15.97
2022-09-11T21:50:24.545Z,15.94
2022-09-11T21:52:51.947Z,15.91
2022-09-11T21:55:19.039Z,15.87
2022-09-11T21:57:46.092Z,15.88
2022-09-11T22:00:14.056Z,15.83
2022-09-11T22:02:41.252Z,15.83
2022-09-11T22:05:08.321Z,15.82
2022-09-11T22:07:39.444Z,15.78
2022-09-11T22:10:07.743Z,15.79
2022-09-11T22:12:36.220Z,15.78
2022-09-11T22:15:03.493Z,15.77
2022-09-11T22:17:30.571Z,15.77
2022-09-11T22:19:57.724Z,15.78
2022-09-11T22:22:24.985Z,15.79
2022-09-11T22:24:52.128Z,15.78
2022-09-11T22:27:19.189Z,15.76
2022-09-11T22:29:47.141Z,15.72
2022-09-11T22:32:14.245Z,15.69
2022-09-11T22:34:41.733Z,15.68
2022-09-11T22:37:08.839Z,15.65
2022-09-11T22:39:35.892Z,15.64
2022-09-11T22:42:04.498Z,15.67
2022-09-11T22:44:31.596Z,15.72
2022-09-11T22:46:58.659Z,15.76
2022-09-11T22:49:25.786Z,15.77
2022-09-11T22:51:52.872Z,15.76
2022-09-11T22:54:19.957Z,15.77
2022-09-11T22:56:47.072Z,15.72
2022-09-11T22:59:14.186Z,15.69
2022-09-11T23:01:41.344Z,15.70
2022-09-11T23:04:08.544Z,15.69
2022-09-11T23:06:54.410Z,15.68
2022-09-11T23:09:21.327Z,15.64
2022-09-11T23:11:48.908Z,15.57
2022-09-11T23:14:16.236Z,15.56
2022-09-11T23:16:43.835Z,15.59
2022-09-11T23:19:12.909Z,15.57
2022-09-11T23:21:39.959Z,15.55
2022-09-11T23:24:10.398Z,15.50
2022-09-11T23:26:37.575Z,15.43
2022-09-11T23:29:04.670Z,15.39
2022-09-11T23:31:32.981Z,15.36
2022-09-11T23:34:02.679Z,15.35
2022-09-11T23:36:30.492Z,15.29
2022-09-11T23:38:58.523Z,15.26
2022-09-11T23:41:25.687Z,15.26
2022-09-11T23:43:52.902Z,15.22
2022-09-11T23:46:20.154Z,15.18
2022-09-11T23:48:47.281Z,15.15
2022-09-11T23:51:15.577Z,15.12
2022-09-11T23:53:45.658Z,15.15
2022-09-11T23:56:14.368Z,15.17
2022-09-11T23:58:42.286Z,15.19
